createdAt,value
2023-05-14T00:02:21.378Z,11.24
2023-05-14T00:04:49.705Z,11.28
2023-05-14T00:07:19.164Z,11.32
2023-05-14T00:09:47.363Z,11.17
2023-05-14T00:12:15.595Z,11.27
2023-05-14T00:14:43.822Z,11.09
2023-05-14T00:17:11.969Z,10.96
2023-05-14T00:19:41.883Z,11.09
2023-05-14T00:22:10.103Z,11.14
2023-05-14T00:24:39.651Z,11.12
2023-05-14T00:27:07.969Z,11.03
2023-05-14T00:29:36.117Z,11.06
2023-05-14T00:32:04.704Z,11.00
2023-05-14T00:34:33.182Z,10.99
2023-05-14T00:37:01.489Z,10.82
2023-05-14T00:39:29.639Z,10.75
2023-05-14T00:41:59.222Z,10.82
2023-05-14T00:44:27.520Z,10.67
2023-05-14T00:46:55.973Z,10.77
2023-05-14T00:49:24.528Z,10.50
2023-05-14T00:51:53.298Z,10.60
2023-05-14T00:54:22.236Z,10.53
2023-05-14T00:56:50.444Z,10.61
2023-05-14T00:59:19.936Z,10.65
2023-05-14T01:01:48.250Z,10.66
2023-05-14T01:04:16.852Z,10.55
2023-05-14T01:06:55.713Z,10.48
2023-05-14T01:09:27.953Z,10.32
2023-05-14T01:12:01.792Z,10.07
2023-05-14T01:14:37.530Z,10.46
2023-05-14T01:17:06.235Z,10.40
2023-05-14T01:19:40.643Z,10.39
2023-05-14T01:22:10.616Z,10.68
2023-05-14T01:24:38.922Z,10.70
2023-05-14T01:27:11.523Z,10.56
2023-05-14T01:29:44.333Z,10.56
2023-05-14T01:32:14.412Z,10.67
2023-05-14T01:34:44.075Z,10.85
2023-05-14T01:37:14.706Z,10.67
2023-05-14T01:39:43.661Z,10.93
2023-05-14T01:42:12.033Z,10.81
2023-05-14T01:44:40.656Z,10.91
2023-05-14T01:47:08.803Z,10.93
2023-05-14T01:49:37.617Z,10.84
2023-05-14T01:52:06.432Z,10.79
2023-05-14T01:54:35.960Z,10.95
2023-05-14T01:57:04.647Z,10.90
2023-05-14T01:59:32.880Z,10.94
2023-05-14T02:02:01.105Z,10.87
2023-05-14T02:04:29.699Z,10.60
2023-05-14T02:06:58.111Z,10.75
2023-05-14T02:09:26.358Z,10.68
2023-05-14T02:11:56.175Z,10.76
2023-05-14T02:14:24.370Z,10.52
2023-05-14T02:16:52.527Z,10.49
2023-05-14T02:19:20.715Z,10.57
2023-05-14T02:21:50.279Z,10.62
2023-05-14T02:24:18.485Z,10.89
2023-05-14T02:26:46.640Z,10.80
2023-05-14T02:29:16.159Z,10.88
2023-05-14T02:31:44.487Z,10.88
2023-05-14T02:34:12.732Z,10.65
2023-05-14T02:36:41.096Z,10.59
2023-05-14T02:39:09.256Z,10.71
2023-05-14T02:41:37.459Z,10.70
2023-05-14T02:44:06.108Z,10.50
2023-05-14T02:46:36.325Z,10.46
2023-05-14T02:49:04.507Z,10.36
2023-05-14T02:51:32.775Z,10.38
2023-05-14T02:54:01.016Z,10.44
2023-05-14T02:56:29.157Z,10.51
2023-05-14T02:58:57.298Z,10.47
2023-05-14T03:01:25.880Z,10.45
2023-05-14T03:03:55.967Z,10.42
2023-05-14T03:06:24.129Z,10.40
2023-05-14T03:08:52.280Z,10.37
2023-05-14T03:11:20.681Z,10.13
2023-05-14T03:13:48.850Z,10.25
2023-05-14T03:16:17.076Z,10.23
2023-05-14T03:18:45.582Z,10.09
2023-05-14T03:21:15.563Z,9.98
2023-05-14T03:23:44.772Z,10.06
2023-05-14T03:26:12.892Z,9.84
2023-05-14T03:28:41.194Z,9.84
2023-05-14T03:31:09.456Z,9.69
2023-05-14T03:33:38.582Z,9.99
2023-05-14T03:36:07.260Z,10.10
2023-05-14T03:38:36.857Z,9.88
2023-05-14T03:41:05.151Z,9.87
2023-05-14T03:43:33.314Z,10.11
2023-05-14T03:46:01.461Z,10.17
2023-05-14T03:48:29.919Z,10.08
2023-05-14T03:50:58.171Z,10.16
2023-05-14T03:53:26.339Z,10.48
2023-05-14T03:55:55.913Z,10.74
2023-05-14T03:58:24.175Z,10.44
2023-05-14T04:00:52.918Z,10.66
2023-05-14T04:03:21.209Z,10.85
2023-05-14T04:05:49.526Z,11.44
2023-05-14T04:08:17.687Z,11.72
2023-05-14T04:10:46.276Z,11.60
2023-05-14T04:13:15.798Z,11.35
2023-05-14T04:15:44.851Z,11.39
2023-05-14T04:18:13.053Z,11.28
2023-05-14T04:20:41.513Z,11.87
2023-05-14T04:23:10.142Z,11.92
2023-05-14T04:25:38.328Z,11.99
2023-05-14T04:28:06.781Z,11.97
2023-05-14T04:30:36.294Z,11.83
2023-05-14T04:33:04.933Z,12.10
2023-05-14T04:35:33.084Z,11.83
2023-05-14T04:38:01.314Z,11.40
2023-05-14T04:40:31.097Z,11.51
2023-05-14T04:42:59.443Z,11.62
2023-05-14T04:45:27.619Z,11.50
2023-05-14T04:47:57.129Z,11.76
2023-05-14T04:50:25.824Z,11.76
2023-05-14T04:52:55.785Z,11.90
2023-05-14T04:55:24.207Z,11.86
2023-05-14T04:57:52.430Z,11.90
2023-05-14T05:00:22.026Z,11.92
2023-05-14T05:02:50.709Z,11.79
2023-05-14T05:05:20.689Z,11.62
2023-05-14T05:07:48.995Z,11.82
2023-05-14T05:10:17.165Z,11.99
2023-05-14T05:12:45.346Z,11.97
2023-05-14T05:15:13.571Z,11.93
2023-05-14T05:17:41.945Z,12.19
2023-05-14T05:20:10.904Z,12.08
2023-05-14T05:22:40.636Z,12.19
2023-05-14T05:25:09.403Z,12.26
2023-05-14T05:27:37.537Z,12.19
2023-05-14T05:30:07.332Z,12.16
2023-05-14T05:32:36.142Z,12.17
2023-05-14T05:35:04.964Z,12.41
2023-05-14T05:37:33.127Z,12.53
2023-05-14T05:40:02.715Z,12.73
2023-05-14T05:42:30.946Z,12.61
2023-05-14T05:44:59.130Z,12.55
2023-05-14T05:47:27.326Z,12.54
2023-05-14T05:49:55.506Z,12.63
2023-05-14T05:52:24.182Z,12.85
2023-05-14T05:54:52.481Z,13.02
2023-05-14T05:57:25.663Z,12.91
2023-05-14T05:59:54.541Z,12.76
2023-05-14T06:02:22.923Z,12.92
2023-05-14T06:04:51.209Z,12.99
2023-05-14T06:07:19.407Z,13.07
2023-05-14T06:09:47.869Z,13.17
2023-05-14T06:12:16.143Z,13.28
2023-05-14T06:14:45.674Z,13.11
2023-05-14T06:17:13.847Z,13.16
2023-05-14T06:19:42.043Z,13.33
2023-05-14T06:22:10.318Z,13.45
2023-05-14T06:24:38.500Z,13.59
2023-05-14T06:27:07.087Z,13.32
2023-05-14T06:29:35.239Z,13.31
2023-05-14T06:32:05.652Z,13.67
2023-05-14T06:34:34.216Z,13.84
2023-05-14T06:37:04.142Z,13.88
2023-05-14T06:39:32.398Z,13.67
2023-05-14T06:42:00.659Z,13.79
2023-05-14T06:44:28.873Z,13.79
2023-05-14T06:46:57.151Z,13.52
2023-05-14T06:49:26.625Z,13.66
2023-05-14T06:51:54.794Z,13.78
2023-05-14T06:54:23.163Z,13.98
2023-05-14T06:56:51.282Z,14.04
2023-05-14T06:59:19.499Z,14.08
2023-05-14T07:01:47.761Z,14.33
2023-05-14T07:04:16.001Z,14.23
2023-05-14T07:06:46.029Z,14.46
2023-05-14T07:09:14.399Z,14.60
2023-05-14T07:11:42.528Z,14.51
2023-05-14T07:14:10.699Z,14.56
2023-05-14T07:16:38.899Z,14.16
2023-05-14T07:19:07.216Z,14.54
2023-05-14T07:21:36.136Z,14.63
2023-05-14T07:24:06.782Z,14.48
2023-05-14T07:26:35.215Z,14.76
2023-05-14T07:29:03.444Z,14.69
2023-05-14T07:31:31.655Z,14.51
2023-05-14T07:34:00.005Z,14.74
2023-05-14T07:36:28.375Z,14.90
2023-05-14T07:38:56.601Z,14.98
2023-05-14T07:41:26.104Z,14.69
2023-05-14T07:43:54.298Z,14.92
2023-05-14T07:46:23.856Z,15.06
2023-05-14T07:48:52.000Z,15.60
2023-05-14T07:51:20.168Z,15.65
2023-05-14T07:53:48.358Z,15.35
2023-05-14T07:56:16.865Z,15.68
2023-05-14T07:58:46.368Z,15.69
2023-05-14T08:01:14.640Z,16.29
2023-05-14T08:03:42.900Z,15.98
2023-05-14T08:06:11.210Z,16.45
2023-05-14T08:08:39.402Z,16.80
2023-05-14T08:11:07.665Z,16.74
2023-05-14T08:13:36.160Z,17.00
2023-05-14T08:16:06.304Z,17.12
2023-05-14T08:18:34.596Z,17.62
2023-05-14T08:21:03.796Z,17.75
2023-05-14T08:23:32.167Z,17.77
2023-05-14T08:26:00.414Z,18.14
2023-05-14T08:28:28.694Z,18.20
2023-05-14T08:30:57.025Z,17.86
2023-05-14T08:33:26.670Z,17.75
2023-05-14T08:35:54.989Z,17.45
2023-05-14T08:38:23.169Z,17.59
2023-05-14T08:40:57.286Z,18.26
2023-05-14T08:43:28.199Z,18.30
2023-05-14T08:46:02.217Z,18.36
2023-05-14T08:48:34.470Z,18.98
2023-05-14T08:51:03.277Z,19.03
2023-05-14T08:53:32.108Z,18.75
2023-05-14T08:56:02.680Z,19.29
2023-05-14T08:58:31.106Z,19.28
2023-05-14T09:00:59.517Z,19.58
2023-05-14T09:03:27.999Z,19.48
2023-05-14T09:06:00.093Z,19.53
2023-05-14T09:08:28.599Z,19.40
2023-05-14T09:10:56.784Z,19.13
2023-05-14T09:13:26.915Z,19.59
2023-05-14T09:15:57.019Z,19.82
2023-05-14T09:18:26.196Z,19.65
2023-05-14T09:20:54.538Z,19.68
2023-05-14T09:23:26.706Z,19.70
2023-05-14T09:25:54.951Z,19.90
2023-05-14T09:28:24.404Z,19.90
2023-05-14T09:30:52.753Z,19.51
2023-05-14T09:33:28.172Z,20.01
2023-05-14T09:35:59.535Z,20.20
2023-05-14T09:38:33.135Z,20.46
2023-05-14T09:41:01.779Z,20.60
2023-05-14T09:43:29.993Z,20.51
2023-05-14T09:45:58.187Z,20.61
2023-05-14T09:48:26.519Z,20.53
2023-05-14T09:50:54.703Z,20.81
2023-05-14T09:53:22.874Z,20.87
2023-05-14T09:55:52.612Z,20.72
2023-05-14T09:58:20.941Z,20.84
2023-05-14T10:00:49.939Z,20.77
2023-05-14T10:03:21.171Z,20.55
2023-05-14T10:05:51.048Z,21.04
2023-05-14T10:08:25.426Z,20.69
2023-05-14T10:10:56.246Z,20.53
2023-05-14T10:13:31.335Z,20.72
2023-05-14T10:16:09.467Z,20.65
2023-05-14T10:18:48.561Z,20.61
2023-05-14T10:21:21.058Z,20.85
2023-05-14T10:23:50.357Z,20.87
2023-05-14T10:26:21.240Z,20.61
2023-05-14T10:28:51.405Z,20.89
2023-05-14T10:31:19.608Z,20.69
2023-05-14T10:33:50.166Z,20.37
2023-05-14T10:36:19.413Z,20.36
2023-05-14T10:38:47.979Z,20.82
2023-05-14T10:41:17.962Z,20.73
2023-05-14T10:43:48.405Z,20.69
2023-05-14T10:46:16.761Z,21.40
2023-05-14T10:48:45.318Z,21.77
2023-05-14T10:51:13.973Z,21.89
2023-05-14T10:53:43.714Z,22.27
2023-05-14T10:56:13.570Z,21.89
2023-05-14T10:58:44.108Z,21.75
2023-05-14T11:01:14.944Z,22.17
2023-05-14T11:03:45.902Z,21.12
2023-05-14T11:06:16.654Z,20.61
2023-05-14T11:08:46.454Z,20.63
2023-05-14T11:11:15.195Z,20.54
2023-05-14T11:13:43.883Z,21.27
2023-05-14T11:18:54.704Z,21.54
2023-05-14T11:21:23.005Z,21.69
2023-05-14T11:23:51.246Z,21.53
2023-05-14T11:26:21.488Z,21.27
2023-05-14T11:28:50.505Z,21.25
2023-05-14T11:31:20.198Z,21.19
2023-05-14T11:33:48.574Z,21.10
2023-05-14T11:36:16.790Z,21.17
2023-05-14T11:38:50.544Z,20.98
2023-05-14T11:41:20.978Z,21.44
2023-05-14T11:43:49.452Z,22.26
2023-05-14T11:46:19.049Z,22.52
2023-05-14T11:48:49.084Z,22.92
2023-05-14T11:51:17.308Z,22.58
2023-05-14T11:53:46.422Z,22.59
2023-05-14T11:56:14.657Z,22.35
2023-05-14T11:58:49.067Z,22.41
2023-05-14T12:01:17.543Z,21.83
2023-05-14T12:03:45.897Z,21.79
2023-05-14T12:06:15.553Z,21.47
2023-05-14T12:08:43.815Z,21.20
2023-05-14T12:11:11.938Z,21.10
2023-05-14T12:13:40.771Z,21.13
2023-05-14T12:16:09.021Z,21.23
2023-05-14T12:18:37.976Z,21.34
2023-05-14T12:21:08.362Z,21.50
2023-05-14T12:23:39.812Z,21.20
2023-05-14T12:26:09.152Z,21.44
2023-05-14T12:28:43.099Z,21.40
2023-05-14T12:31:11.505Z,21.07
2023-05-14T12:33:39.993Z,21.24
2023-05-14T12:38:41.618Z,21.50
2023-05-14T12:41:09.778Z,21.51
2023-05-14T12:43:37.924Z,21.17
2023-05-14T12:46:06.306Z,21.05
2023-05-14T12:48:34.489Z,20.99
2023-05-14T12:51:02.843Z,21.12
2023-05-14T12:53:31.052Z,20.78
2023-05-14T12:56:00.620Z,20.78
2023-05-14T12:58:28.860Z,20.94
2023-05-14T13:00:57.068Z,20.69
2023-05-14T13:03:26.354Z,20.63
2023-05-14T13:05:55.758Z,20.69
2023-05-14T13:08:25.150Z,20.84
2023-05-14T13:10:54.064Z,20.84
2023-05-14T13:13:23.817Z,21.05
2023-05-14T13:15:52.042Z,21.14
2023-05-14T13:18:20.338Z,21.45
2023-05-14T13:20:48.609Z,21.32
2023-05-14T13:23:16.782Z,21.28
2023-05-14T13:25:45.056Z,20.96
2023-05-14T13:28:15.024Z,21.03
2023-05-14T13:31:05.348Z,20.53
2023-05-14T13:33:34.332Z,20.68
2023-05-14T13:36:02.597Z,21.03
2023-05-14T13:38:30.876Z,20.88
2023-05-14T13:41:02.429Z,20.93
2023-05-14T13:43:31.408Z,21.23
2023-05-14T13:46:01.610Z,21.00
2023-05-14T13:48:30.958Z,20.69
2023-05-14T13:50:59.465Z,20.60
2023-05-14T13:53:27.888Z,20.20
2023-05-14T13:55:58.333Z,20.12
2023-05-14T13:58:26.969Z,19.91
2023-05-14T14:00:56.051Z,19.71
2023-05-14T14:03:25.546Z,19.73
2023-05-14T14:05:54.173Z,19.60
2023-05-14T14:08:24.369Z,19.78
2023-05-14T14:10:55.138Z,19.72
2023-05-14T14:13:24.465Z,19.92
2023-05-14T14:15:52.942Z,19.90
2023-05-14T14:18:21.202Z,20.12
2023-05-14T14:20:50.795Z,20.46
2023-05-14T14:23:19.549Z,20.20
2023-05-14T14:25:47.909Z,20.39
2023-05-14T14:28:16.089Z,20.66
2023-05-14T14:30:44.713Z,20.57
2023-05-14T14:33:12.946Z,20.45
2023-05-14T14:35:41.168Z,20.08
2023-05-14T14:38:10.667Z,19.97
2023-05-14T14:40:38.889Z,20.34
2023-05-14T14:43:07.182Z,20.33
2023-05-14T14:45:35.418Z,20.29
2023-05-14T14:48:27.149Z,20.33
2023-05-14T14:50:56.359Z,20.10
2023-05-14T14:53:25.916Z,20.06
2023-05-14T14:55:54.365Z,20.07
2023-05-14T14:58:22.972Z,20.02
2023-05-14T15:00:53.455Z,19.97
2023-05-14T15:03:22.299Z,19.60
2023-05-14T15:05:51.180Z,19.75
2023-05-14T15:08:19.472Z,19.82
2023-05-14T15:10:48.978Z,20.04
2023-05-14T15:13:17.561Z,20.11
2023-05-14T15:15:45.884Z,19.91
2023-05-14T15:18:14.111Z,20.30
2023-05-14T15:20:42.356Z,20.12
2023-05-14T15:23:11.532Z,20.07
2023-05-14T15:25:39.810Z,20.30
2023-05-14T15:28:09.308Z,20.53
2023-05-14T15:30:37.762Z,20.66
2023-05-14T15:33:08.692Z,21.09
2023-05-14T15:35:37.451Z,20.59
2023-05-14T15:38:05.608Z,21.06
2023-05-14T15:40:35.020Z,22.28
2023-05-14T15:43:03.299Z,22.24
2023-05-14T15:45:32.940Z,22.84
2023-05-14T15:48:01.217Z,23.85
2023-05-14T15:50:29.505Z,24.28
2023-05-14T15:52:57.766Z,24.58
2023-05-14T15:55:25.970Z,24.38
2023-05-14T15:57:54.140Z,22.60
2023-05-14T16:00:22.828Z,22.46
2023-05-14T16:02:52.984Z,22.59
2023-05-14T16:05:21.195Z,22.82
2023-05-14T16:07:49.410Z,24.21
2023-05-14T16:10:17.946Z,23.26
2023-05-14T16:12:46.582Z,23.09
2023-05-14T16:15:14.759Z,24.61
2023-05-14T16:17:43.200Z,25.72
2023-05-14T16:20:13.660Z,23.75
2023-05-14T16:22:42.571Z,23.74
2023-05-14T16:25:10.772Z,24.13
2023-05-14T16:27:39.043Z,26.08
2023-05-14T16:30:08.644Z,24.51
2023-05-14T16:32:36.880Z,23.70
2023-05-14T16:35:05.530Z,23.95
2023-05-14T16:37:35.443Z,23.76
2023-05-14T16:40:03.788Z,22.23
2023-05-14T16:42:31.949Z,21.59
2023-05-14T16:45:00.401Z,21.61
2023-05-14T16:47:28.585Z,21.14
2023-05-14T16:49:56.737Z,20.79
2023-05-14T16:52:24.953Z,20.12
2023-05-14T16:54:54.509Z,19.82
2023-05-14T16:57:22.671Z,19.97
2023-05-14T16:59:50.996Z,19.67
2023-05-14T17:02:19.294Z,19.59
2023-05-14T17:04:47.544Z,19.31
2023-05-14T17:07:15.722Z,19.46
2023-05-14T17:09:43.862Z,19.32
2023-05-14T17:12:14.038Z,19.59
2023-05-14T17:14:42.218Z,19.23
2023-05-14T17:17:10.379Z,19.34
2023-05-14T17:19:38.506Z,19.48
2023-05-14T17:22:07.275Z,19.25
2023-05-14T17:24:36.467Z,19.13
2023-05-14T17:27:05.166Z,18.97
2023-05-14T17:29:34.638Z,19.10
2023-05-14T17:32:03.595Z,19.18
2023-05-14T17:34:31.866Z,18.89
2023-05-14T17:37:00.827Z,18.84
2023-05-14T17:39:29.090Z,18.56
2023-05-14T17:41:57.267Z,18.76
2023-05-14T17:44:25.464Z,18.49
2023-05-14T17:46:55.111Z,18.52
2023-05-14T17:49:23.268Z,18.42
2023-05-14T17:51:51.455Z,18.35
2023-05-14T17:54:19.654Z,18.25
2023-05-14T17:56:50.808Z,18.20
2023-05-14T17:59:19.141Z,18.42
2023-05-14T18:01:47.357Z,18.17
2023-05-14T18:04:16.943Z,18.43
2023-05-14T18:06:45.671Z,18.35
2023-05-14T18:09:13.831Z,18.43
2023-05-14T18:11:42.403Z,18.36
2023-05-14T18:14:10.927Z,18.26
2023-05-14T18:16:39.114Z,17.99
2023-05-14T18:19:07.383Z,17.77
2023-05-14T18:21:36.932Z,17.77
2023-05-14T18:24:05.698Z,17.66
2023-05-14T18:26:34.987Z,17.58
2023-05-14T18:29:03.175Z,17.50
2023-05-14T18:31:31.419Z,17.53
2023-05-14T18:33:59.618Z,17.34
2023-05-14T18:36:28.198Z,17.31
2023-05-14T18:38:57.815Z,17.15
2023-05-14T18:41:26.092Z,17.19
2023-05-14T18:43:54.322Z,17.10
2023-05-14T18:46:22.593Z,17.04
2023-05-14T18:48:51.264Z,16.96
2023-05-14T18:51:19.470Z,16.80
2023-05-14T18:53:47.740Z,16.60
2023-05-14T18:56:17.210Z,16.53
2023-05-14T18:58:45.394Z,16.64
2023-05-14T19:01:13.683Z,16.45
2023-05-14T19:03:42.294Z,16.40
2023-05-14T19:06:10.682Z,16.09
2023-05-14T19:08:38.859Z,15.93
2023-05-14T19:11:07.052Z,16.14
2023-05-14T19:13:36.648Z,15.86
2023-05-14T19:16:05.273Z,16.03
2023-05-14T19:18:33.726Z,16.06
2023-05-14T19:21:01.913Z,15.95
2023-05-14T19:23:31.063Z,15.43
2023-05-14T19:25:59.337Z,15.61
2023-05-14T19:28:27.645Z,15.72
2023-05-14T19:30:57.341Z,15.41
2023-05-14T19:33:26.221Z,15.43
2023-05-14T19:35:54.396Z,15.54
2023-05-14T19:38:22.585Z,15.52
2023-05-14T19:40:53.291Z,15.40
2023-05-14T19:43:21.521Z,15.12
2023-05-14T19:45:50.589Z,15.21
2023-05-14T19:48:20.241Z,15.17
2023-05-14T19:50:48.504Z,15.07
2023-05-14T19:53:16.674Z,14.91
2023-05-14T19:55:44.903Z,14.69
2023-05-14T19:58:13.082Z,14.68
2023-05-14T20:00:42.041Z,14.40
2023-05-14T20:03:10.774Z,14.38
2023-05-14T20:05:40.853Z,14.41
2023-05-14T20:08:09.254Z,14.29
2023-05-14T20:10:37.438Z,14.14
2023-05-14T20:13:06.281Z,13.96
2023-05-14T20:15:34.789Z,13.84
2023-05-14T20:18:06.151Z,13.78
2023-05-14T20:20:34.438Z,13.67
2023-05-14T20:23:03.965Z,13.64
2023-05-14T20:25:33.504Z,13.54
2023-05-14T20:28:01.906Z,13.45
2023-05-14T20:30:30.168Z,13.33
2023-05-14T20:32:58.663Z,13.34
2023-05-14T20:35:27.385Z,13.27
2023-05-14T20:37:56.269Z,13.19
2023-05-14T20:40:25.917Z,12.95
2023-05-14T20:42:54.080Z,12.81
2023-05-14T20:45:22.291Z,12.76
2023-05-14T20:47:50.528Z,12.76
2023-05-14T20:50:18.806Z,12.71
2023-05-14T20:52:47.077Z,12.53
2023-05-14T20:55:15.450Z,12.55
2023-05-14T20:57:44.978Z,12.56
2023-05-14T21:00:14.120Z,12.47
2023-05-14T21:02:42.575Z,12.45
2023-05-14T21:05:10.820Z,12.43
2023-05-14T21:07:39.368Z,12.25
2023-05-14T21:10:09.209Z,12.22
2023-05-14T21:12:37.482Z,12.22
2023-05-14T21:15:08.223Z,12.14
2023-05-14T21:17:36.414Z,12.10
2023-05-14T21:20:05.287Z,12.10
2023-05-14T21:22:33.492Z,11.99
2023-05-14T21:25:01.658Z,11.95
2023-05-14T21:27:29.902Z,11.92
2023-05-14T21:29:58.122Z,11.87
2023-05-14T21:32:27.695Z,11.69
2023-05-14T21:34:56.168Z,11.61
2023-05-14T21:37:24.482Z,11.55
2023-05-14T21:39:52.756Z,11.43
2023-05-14T21:42:21.372Z,11.48
2023-05-14T21:44:49.531Z,11.45
2023-05-14T21:47:17.848Z,11.27
2023-05-14T21:49:47.402Z,11.34
2023-05-14T21:52:15.644Z,11.36
2023-05-14T21:54:43.870Z,11.27
2023-05-14T21:57:12.040Z,11.15
2023-05-14T21:59:40.310Z,11.18
2023-05-14T22:02:08.741Z,11.06
2023-05-14T22:04:36.965Z,11.09
2023-05-14T22:07:06.569Z,11.07
2023-05-14T22:09:34.825Z,11.07
2023-05-14T22:12:02.992Z,10.94
2023-05-14T22:14:31.151Z,10.90
2023-05-14T22:16:59.375Z,10.89
2023-05-14T22:19:27.889Z,10.82
2023-05-14T22:21:56.392Z,10.72
2023-05-14T22:24:26.163Z,10.77
2023-05-14T22:26:54.664Z,10.71
2023-05-14T22:29:22.979Z,10.63
2023-05-14T22:31:51.256Z,10.52
2023-05-14T22:34:20.159Z,10.51
2023-05-14T22:36:48.361Z,10.46
2023-05-14T22:39:16.507Z,10.48
2023-05-14T22:41:46.101Z,10.33
2023-05-14T22:44:14.353Z,10.43
2023-05-14T22:46:42.750Z,10.40
2023-05-14T22:49:10.928Z,10.30
2023-05-14T22:51:39.357Z,10.14
2023-05-14T22:54:07.961Z,10.17
2023-05-14T22:56:36.645Z,10.17
2023-05-14T22:59:06.182Z,9.91
2023-05-14T23:01:34.534Z,10.09
2023-05-14T23:04:02.782Z,10.03
2023-05-14T23:06:31.362Z,10.12
2023-05-14T23:08:59.620Z,10.02
2023-05-14T23:11:28.126Z,9.94
2023-05-14T23:13:56.278Z,9.78
2023-05-14T23:16:25.957Z,9.96
2023-05-14T23:18:54.496Z,9.90
2023-05-14T23:21:23.569Z,9.52
2023-05-14T23:23:52.005Z,9.54
2023-05-14T23:26:21.477Z,9.62
2023-05-14T23:28:51.100Z,9.88
2023-05-14T23:31:19.311Z,9.88
2023-05-14T23:33:48.835Z,9.75
2023-05-14T23:36:17.034Z,9.74
2023-05-14T23:38:45.295Z,9.67
2023-05-14T23:41:13.471Z,9.50
2023-05-14T23:43:41.601Z,9.58
2023-05-14T23:46:10.158Z,9.54
2023-05-14T23:48:38.458Z,9.47
2023-05-14T23:51:08.058Z,9.43
2023-05-14T23:53:36.185Z,9.32
2023-05-14T23:56:04.465Z,9.28
2023-05-14T23:58:33.685Z,9.28
